Terminal Aerodrome Forecast
Issued by NWS

Home | Current Version | Previous Version | Text Only | Print | Product List | Glossary On
Versions: 1 2 3 4 5 6 7 8 9 10 11 12 13 14 15 16
000
FTUS43 KMPX 271120
TAFRNH
TAF
KRNH 271120Z 2712/2812 12004KT P6SM SCT100 SCT250
     FM271500 16006KT P6SM SCT050 BKN250
     FM280700 15004KT 5SM -SHRA BKN040 OVC060
     FM281000 13004KT 4SM -RA BR SCT007 OVC020=

USA.gov is the U.S. government's official web portal to all federal, state and local government web resources and services.